Time;durP1;ratioP1;P1;durP2;ratioP2;P2;SDS_P1;SDS_P2;PMS_P1;PMS_P2;Temp;Humidity;BMP_temperature;BMP_pressure;BME280_temperature;BME280_humidity;BME280_pressure;Samples;Min_cycle;Max_cycle;Signal;HPM_P1;HPM_P2
2022/11/03 04:57:39;;;;;;;;;2.00;2.00;;;;;18.68;57.72;100812.94;5075818;27;45938;-81
2022/11/03 05:00:06;;;;;;;;;1.33;1.33;;;;;18.82;57.60;100804.50;5068202;28;45484;-78
2022/11/03 05:02:32;;;;;;;;;1.00;1.00;;;;;19.04;57.61;100799.91;5066165;28;45514;-80
2022/11/03 05:04:57;;;;;;;;;1.33;1.00;;;;;19.31;57.46;100782.28;5072839;28;45364;-81
2022/11/03 05:07:35;;;;;;;;;2.00;2.00;;;;;19.65;57.40;100785.59;5066572;28;46939;-81
2022/11/03 05:10:01;;;;;;;;;4.00;2.33;;;;;19.91;56.58;100766.13;5066657;28;45285;-81
2022/11/03 05:12:28;;;;;;;;;2.33;2.33;;;;;20.31;56.64;100778.56;5068340;28;45470;-80
2022/11/03 05:14:54;;;;;;;;;2.00;1.00;;;;;20.62;55.99;100772.94;5072416;27;45418;-80
2022/11/03 05:17:26;;;;;;;;;5.00;4.00;;;;;21.00;55.20;100778.31;5068806;28;46116;-80
2022/11/03 05:20:00;;;;;;;;;3.00;3.00;;;;;21.33;55.10;100777.81;5072039;27;45899;-80
2022/11/03 05:22:32;;;;;;;;;1.00;1.00;;;;;21.61;55.14;100764.25;5067047;27;45718;-79
2022/11/03 05:25:02;;;;;;;;;2.00;2.00;;;;;21.84;54.32;100758.41;5070287;28;45669;-79
2022/11/03 05:27:28;;;;;;;;;5.00;1.00;;;;;22.15;53.65;100755.22;5071787;28;46129;-80
2022/11/03 05:29:58;;;;;;;;;2.00;2.00;;;;;22.38;53.49;100743.88;5072235;28;45442;-81
2022/11/03 05:32:28;;;;;;;;;1.33;1.33;;;;;22.58;53.06;100738.25;5071739;28;45408;-80
2022/11/03 05:34:54;;;;;;;;;2.00;2.00;;;;;22.77;52.71;100724.47;5070501;28;45428;-80
2022/11/03 05:37:34;;;;;;;;;1.00;1.00;;;;;22.97;52.50;100712.53;5069641;28;47367;-80
2022/11/03 05:40:05;;;;;;;;;1.67;1.67;;;;;23.09;52.07;100708.47;5070781;28;45513;-80
2022/11/03 05:42:38;;;;;;;;;1.67;1.00;;;;;23.23;51.82;100711.53;5071560;28;45390;-80
2022/11/03 05:45:19;;;;;;;;;1.00;1.00;;;;;23.34;51.53;100689.56;5070358;28;45374;-79
2022/11/03 05:47:46;;;;;;;;;2.67;2.00;;;;;23.45;51.42;100685.69;5061595;28;47203;-80
2022/11/03 05:50:23;;;;;;;;;2.00;2.00;;;;;23.55;51.30;100690.94;5064120;28;45468;-79
2022/11/03 05:52:52;;;;;;;;;3.00;0.00;;;;;23.64;50.96;100686.34;5068214;28;45388;-79
2022/11/03 05:55:32;;;;;;;;;1.00;1.00;;;;;23.74;50.70;100691.59;5058431;28;45491;-81
2022/11/03 05:58:03;;;;;;;;;1.00;1.00;;;;;23.83;50.66;100682.44;5068924;28;46617;-78
2022/11/03 06:00:38;;;;;;;;;2.00;2.00;;;;;23.92;50.51;100685.97;5070669;28;45517;-79
2022/11/03 06:03:04;;;;;;;;;0.67;0.67;;;;;23.96;50.24;100676.50;5064663;28;45497;-80
2022/11/03 06:05:30;;;;;;;;;1.67;1.67;;;;;24.08;50.10;100690.53;5069189;27;45450;-79
2022/11/03 06:08:00;;;;;;;;;1.67;1.67;;;;;24.15;49.86;100686.13;5062696;28;46095;-79
2022/11/03 06:10:33;;;;;;;;;0.00;0.00;;;;;24.17;49.94;100665.09;5057534;28;45416;-79
2022/11/03 06:13:03;;;;;;;;;2.00;2.00;;;;;24.26;49.90;100670.47;5057836;28;45518;-79
2022/11/03 06:15:32;;;;;;;;;3.00;2.00;;;;;24.26;49.92;100665.91;5056624;28;45368;-79
2022/11/03 06:17:59;;;;;;;;;2.33;2.33;;;;;24.32;49.50;100662.50;5052631;28;45383;-79
2022/11/03 06:20:25;;;;;;;;;2.00;2.00;;;;;24.33;49.65;100650.63;5055827;28;45874;-80
2022/11/03 06:22:54;;;;;;;;;1.00;1.00;;;;;24.39;49.46;100649.06;5057916;28;45412;-81
2022/11/03 06:25:34;;;;;;;;;1.67;1.00;;;;;24.45;49.34;100636.69;5057607;28;45406;-80
2022/11/03 06:28:02;;;;;;;;;2.00;2.00;;;;;24.50;49.02;100633.41;5057775;28;46199;-79
2022/11/03 06:30:31;;;;;;;;;1.00;1.00;;;;;24.54;49.35;100623.91;5056393;28;45735;-80
2022/11/03 06:33:08;;;;;;;;;2.00;2.00;;;;;24.58;49.18;100612.53;5057131;28;45465;-83
2022/11/03 06:35:34;;;;;;;;;4.00;3.00;;;;;24.61;49.14;100609.44;5049343;28;45596;-81
2022/11/03 06:38:00;;;;;;;;;2.00;2.00;;;;;24.66;49.04;100613.50;5047496;28;45892;-81
2022/11/03 06:40:33;;;;;;;;;1.00;1.00;;;;;24.68;48.43;100609.56;5057279;28;45419;-81
2022/11/03 06:42:58;;;;;;;;;1.00;1.00;;;;;24.69;48.89;100610.44;5046917;28;45469;-81
2022/11/03 06:45:24;;;;;;;;;3.67;2.33;;;;;24.68;48.15;100606.03;5055854;28;45587;-82
2022/11/03 06:47:52;;;;;;;;;1.00;1.00;;;;;24.67;48.37;100597.03;5055527;28;46137;-82
2022/11/03 06:50:28;;;;;;;;;1.67;1.67;;;;;24.65;48.35;100588.25;5056025;28;45343;-81
2022/11/03 06:52:55;;;;;;;;;1.33;1.33;;;;;24.63;47.78;100592.13;5043934;28;45462;-80
2022/11/03 06:55:24;;;;;;;;;2.00;2.00;;;;;24.64;47.54;100593.84;5043197;28;45190;-80
2022/11/03 06:57:57;;;;;;;;;1.00;1.00;;;;;24.60;47.68;100591.47;5049952;28;46270;-79
2022/11/03 07:00:27;;;;;;;;;2.00;2.00;;;;;24.60;47.86;100591.47;5054131;28;45569;-80
2022/11/03 07:02:52;;;;;;;;;1.00;1.00;;;;;24.57;47.54;100574.72;5050553;28;45398;-80
2022/11/03 07:05:23;;;;;;;;;2.00;1.00;;;;;24.54;47.87;100566.94;5055230;28;45427;-79
2022/11/03 07:07:52;;;;;;;;;3.00;2.00;;;;;24.50;47.63;100549.31;5056754;28;46196;-80
2022/11/03 07:10:18;;;;;;;;;1.00;1.00;;;;;24.49;47.56;100562.06;5057408;28;45336;-80
2022/11/03 07:12:43;;;;;;;;;3.00;1.00;;;;;24.47;47.73;100556.81;5047930;28;45692;-79
2022/11/03 07:15:31;;;;;;;;;1.33;1.33;;;;;24.44;47.49;100559.03;5045509;28;45835;-82
2022/11/03 07:17:57;;;;;;;;;5.33;2.00;;;;;24.41;47.42;100549.41;5053768;28;45503;-87
2022/11/03 07:20:23;;;;;;;;;2.00;2.00;;;;;24.42;47.79;100547.50;5045549;28;45506;-86
2022/11/03 07:22:50;;;;;;;;;2.00;2.00;;;;;24.38;47.21;100538.03;5047581;28;45405;-83
2022/11/03 07:25:21;;;;;;;;;1.00;1.00;;;;;24.35;47.56;100531.09;5047192;28;45538;-81
2022/11/03 07:27:53;;;;;;;;;1.67;1.67;;;;;24.34;47.68;100526.72;5044680;28;45557;-84
2022/11/03 07:30:26;;;;;;;;;0.67;0.67;;;;;24.30;47.25;100528.94;5046586;28;45531;-82
2022/11/03 07:32:53;;;;;;;;;3.00;1.67;;;;;24.30;47.61;100531.66;5046930;28;45362;-80
2022/11/03 07:35:34;;;;;;;;;2.00;1.00;;;;;24.27;47.10;100515.72;5049237;28;45542;-80
2022/11/03 07:38:07;;;;;;;;;2.33;1.00;;;;;24.29;47.31;100507.41;5045946;28;46351;-80
2022/11/03 07:40:33;;;;;;;;;1.00;1.00;;;;;24.27;47.04;100504.88;5051273;28;45412;-83
2022/11/03 07:43:08;;;;;;;;;3.33;3.33;;;;;24.27;46.46;100499.47;5048288;28;45869;-80
2022/11/03 07:45:39;;;;;;;;;4.67;3.00;;;;;24.26;46.55;100495.06;5038967;28;45667;-80
2022/11/03 07:48:15;;;;;;;;;2.00;2.00;;;;;24.23;46.70;100484.56;5051741;28;45561;-82
2022/11/03 07:50:41;;;;;;;;;4.00;3.00;;;;;24.16;47.16;100487.16;5055271;28;45494;-78
2022/11/03 07:53:15;;;;;;;;;3.00;3.00;;;;;24.12;47.15;100485.84;5054805;28;45404;-78
2022/11/03 07:55:40;;;;;;;;;4.67;3.00;;;;;24.11;47.28;100496.84;5045089;28;45886;-78
2022/11/03 07:58:20;;;;;;;;;2.33;2.33;;;;;24.09;47.14;100478.06;5052061;28;50613;-77
2022/11/03 08:00:46;;;;;;;;;3.33;2.00;;;;;24.08;47.37;100482.59;5050862;28;45528;-78
2022/11/03 08:03:26;;;;;;;;;3.67;3.67;;;;;24.13;47.77;100482.09;5052543;28;45477;-80
2022/11/03 08:05:51;;;;;;;;;5.00;5.00;;;;;24.14;47.32;100475.66;5047878;28;45530;-78
2022/11/03 08:08:17;;;;;;;;;1.67;1.67;;;;;24.15;47.42;100471.09;5053125;28;45390;-79
2022/11/03 08:10:42;;;;;;;;;5.00;2.00;;;;;24.07;47.47;100466.50;5054103;28;57969;-78
2022/11/03 08:13:07;;;;;;;;;2.67;2.00;;;;;24.10;47.58;100466.19;5054546;28;48649;-79
2022/11/03 08:15:32;;;;;;;;;2.00;2.00;;;;;24.14;47.90;100459.38;5053745;28;60239;-78
2022/11/03 08:17:58;;;;;;;;;4.67;2.00;;;;;24.20;47.63;100465.97;5054703;28;45663;-78
2022/11/03 08:20:23;;;;;;;;;2.00;2.00;;;;;24.18;47.79;100466.13;5049834;28;57698;-82
2022/11/03 08:22:48;;;;;;;;;2.33;2.33;;;;;24.19;47.30;100439.84;5050164;28;45549;-81
2022/11/03 08:25:14;;;;;;;;;2.33;2.00;;;;;24.25;47.58;100446.44;5049978;28;45479;-82
2022/11/03 08:27:39;;;;;;;;;2.00;2.00;;;;;24.20;47.39;100447.81;5054014;28;46540;-83
2022/11/03 08:30:05;;;;;;;;;3.00;3.00;;;;;24.21;46.88;100444.06;5053664;28;48839;-78
2022/11/03 08:32:31;;;;;;;;;1.00;1.00;;;;;24.13;46.72;100437.88;5053943;28;45400;-84
2022/11/03 08:34:56;;;;;;;;;3.33;2.00;;;;;24.16;47.10;100453.78;5054993;28;45632;-84
2022/11/03 08:37:22;;;;;;;;;3.67;2.00;;;;;24.12;47.13;100453.31;5043511;28;45335;-81
2022/11/03 08:39:47;;;;;;;;;2.33;2.33;;;;;24.14;47.54;100450.38;5052388;28;50700;-78
2022/11/03 08:42:12;;;;;;;;;1.67;1.67;;;;;24.17;47.31;100444.63;5038756;28;45656;-78
2022/11/03 08:44:37;;;;;;;;;6.00;3.00;;;;;24.17;47.14;100423.78;5047898;28;45403;-79
2022/11/03 08:47:03;;;;;;;;;2.00;2.00;;;;;24.19;47.51;100418.16;5051043;28;55974;-78
2022/11/03 08:49:28;;;;;;;;;3.00;3.00;;;;;24.19;47.48;100416.28;5052336;28;45455;-78
2022/11/03 08:51:53;;;;;;;;;1.33;1.33;;;;;24.21;47.38;100400.69;5048709;28;48755;-77
2022/11/03 08:54:18;;;;;;;;;2.33;2.33;;;;;24.20;47.36;100395.47;5051251;28;48293;-80
2022/11/03 08:56:45;;;;;;;;;3.00;2.33;;;;;24.21;47.57;100400.69;5047216;28;53794;-83
2022/11/03 08:59:10;;;;;;;;;2.00;2.00;;;;;24.21;47.40;100397.16;5042738;28;45542;-83
2022/11/03 09:01:35;;;;;;;;;3.67;2.33;;;;;24.18;47.62;100389.34;5033334;28;47821;-81
2022/11/03 09:04:01;;;;;;;;;2.67;2.00;;;;;24.20;47.68;100377.31;5032548;28;47033;-81
2022/11/03 09:06:26;;;;;;;;;3.00;3.00;;;;;24.21;47.59;100370.84;5034509;28;59651;-81
2022/11/03 09:08:51;;;;;;;;;3.33;2.00;;;;;24.20;47.78;100352.06;5041339;28;46875;-77
2022/11/03 09:11:17;;;;;;;;;5.00;2.33;;;;;24.21;47.86;100345.63;5031261;28;45554;-84
2022/11/03 09:13:42;;;;;;;;;4.33;2.00;;;;;24.20;48.05;100339.34;5033884;28;45522;-77
2022/11/03 09:16:07;;;;;;;;;2.00;2.00;;;;;24.19;47.52;100345.78;5031077;28;46992;-80
2022/11/03 09:18:33;;;;;;;;;3.00;3.00;;;;;24.23;47.89;100331.88;5034039;28;50923;-86
2022/11/03 09:20:58;;;;;;;;;3.33;2.00;;;;;24.23;47.75;100326.47;5033504;28;45459;-87
2022/11/03 09:23:23;;;;;;;;;3.33;2.00;;;;;24.23;48.26;100312.91;5031259;28;50836;-84
2022/11/03 09:25:48;;;;;;;;;3.00;1.67;;;;;24.25;48.15;100319.84;5032831;28;53001;-84
2022/11/03 09:28:14;;;;;;;;;2.00;2.00;;;;;24.26;48.03;100307.09;5046621;28;46172;-80
2022/11/03 09:30:39;;;;;;;;;1.00;1.00;;;;;24.20;47.80;100293.25;5043521;28;45487;-81
2022/11/03 09:33:04;;;;;;;;;1.67;1.67;;;;;24.28;47.57;100296.91;5043526;28;45526;-84
2022/11/03 09:35:30;;;;;;;;;1.67;1.67;;;;;24.27;47.97;100298.78;5049829;28;46214;-79
2022/11/03 09:37:55;;;;;;;;;2.33;2.33;;;;;24.26;48.08;100302.53;5049209;28;45668;-85
2022/11/03 09:40:21;;;;;;;;;1.33;1.33;;;;;24.27;47.87;100300.66;5049876;28;46391;-84
2022/11/03 09:42:46;;;;;;;;;2.00;2.00;;;;;24.30;47.83;100298.41;5051518;28;45686;-82
2022/11/03 09:45:12;;;;;;;;;3.00;3.00;;;;;24.32;47.78;100281.97;5050640;28;45529;-83
2022/11/03 09:47:40;;;;;;;;;3.67;2.00;;;;;24.34;47.92;100279.91;5051996;28;45487;-82
2022/11/03 09:50:10;;;;;;;;;4.00;2.00;;;;;24.32;48.32;100273.84;5054006;28;45423;-81
2022/11/03 09:52:36;;;;;;;;;0.67;0.67;;;;;24.37;48.09;100275.97;5053642;28;45443;-84
2022/11/03 09:55:01;;;;;;;;;1.00;1.00;;;;;24.38;48.01;100272.22;5054618;28;45532;-81
2022/11/03 09:57:27;;;;;;;;;3.00;3.00;;;;;24.38;47.35;100261.38;5082333;27;45556;-76
2022/11/03 09:59:53;;;;;;;;;5.00;2.00;;;;;24.41;47.29;100269.16;5055326;28;45525;-78
2022/11/03 10:02:28;;;;;;;;;1.33;1.33;;;;;24.38;47.21;100262.22;5048371;28;46472;-81
2022/11/03 10:04:57;;;;;;;;;3.00;1.33;;;;;24.34;47.64;100260.91;5049053;28;45541;-81
2022/11/03 10:07:25;;;;;;;;;1.33;1.33;;;;;24.31;47.52;100256.72;5046395;28;45406;-84
2022/11/03 10:09:53;;;;;;;;;1.00;1.00;;;;;24.30;47.47;100256.88;5051860;28;45434;-84
2022/11/03 10:12:22;;;;;;;;;2.00;2.00;;;;;24.28;47.64;100245.41;5050971;28;45629;-77
2022/11/03 10:14:49;;;;;;;;;2.00;2.00;;;;;24.27;48.00;100252.69;5054058;28;46162;-79
2022/11/03 10:17:19;;;;;;;;;1.00;1.00;;;;;24.27;48.13;100244.53;5047381;28;45626;-78
2022/11/03 10:19:51;;;;;;;;;3.33;3.33;;;;;24.18;47.90;100216.69;5056309;28;45531;-78
2022/11/03 10:22:19;;;;;;;;;1.00;1.00;;;;;24.28;47.78;100229.13;5049866;28;45819;-81
2022/11/03 10:24:44;;;;;;;;;2.00;2.00;;;;;24.30;47.94;100227.91;5049104;28;45521;-79
2022/11/03 10:27:21;;;;;;;;;2.00;2.00;;;;;24.32;47.93;100217.72;5049478;28;61612;-80
2022/11/03 10:30:06;;;;;;;;;1.33;1.33;;;;;24.32;48.11;100209.56;5054583;28;45621;-80
2022/11/03 10:32:33;;;;;;;;;2.00;1.67;;;;;24.37;47.80;100224.44;5046075;28;45419;-80
2022/11/03 10:34:59;;;;;;;;;1.00;1.00;;;;;24.38;48.08;100224.25;5052405;28;47160;-78
2022/11/03 10:37:25;;;;;;;;;2.00;2.00;;;;;24.40;47.75;100221.38;5046837;28;45490;-77
2022/11/03 10:39:53;;;;;;;;;4.00;1.33;;;;;24.38;48.05;100208.00;5049136;28;45504;-79
2022/11/03 10:42:24;;;;;;;;;2.00;2.00;;;;;24.40;48.21;100202.38;5052511;28;45645;-79
2022/11/03 10:44:54;;;;;;;;;2.00;2.00;;;;;24.42;47.96;100206.59;5048848;28;45778;-79
2022/11/03 10:47:30;;;;;;;;;1.67;1.67;;;;;24.40;48.20;100195.06;5051750;28;45408;-79
2022/11/03 10:49:55;;;;;;;;;2.67;1.00;;;;;24.44;48.31;100193.66;5053313;28;45340;-79
2022/11/03 10:52:23;;;;;;;;;0.67;0.67;;;;;24.46;48.07;100185.34;5050717;28;45466;-78
2022/11/03 10:54:50;;;;;;;;;2.00;2.00;;;;;24.45;47.97;100183.69;5049153;28;46403;-78
2022/11/03 10:57:16;;;;;;;;;3.00;2.00;;;;;24.46;48.14;100191.63;5051499;28;45451;-78
2022/11/03 10:59:43;;;;;;;;;1.00;1.00;;;;;24.49;48.21;100184.97;5052396;28;45710;-78
2022/11/03 11:02:20;;;;;;;;;3.33;2.00;;;;;24.51;48.34;100193.75;5047063;28;45514;-79
2022/11/03 11:04:55;;;;;;;;;4.00;2.00;;;;;24.52;47.59;100195.44;5068168;28;46192;-74
2022/11/03 11:07:25;;;;;;;;;4.00;2.00;;;;;24.54;47.10;100181.69;5051940;28;45442;-83
2022/11/03 11:09:52;;;;;;;;;3.00;1.00;;;;;24.55;45.78;100173.38;5052936;28;45570;-86
2022/11/03 11:12:21;;;;;;;;;2.33;2.33;;;;;24.55;45.64;100158.94;5049613;28;45486;-87
2022/11/03 11:14:54;;;;;;;;;2.00;2.00;;;;;24.56;45.71;100168.78;5043825;28;45442;-79
2022/11/03 11:17:40;;;;;;;;;2.67;2.00;;;;;24.59;45.47;100180.09;5054785;28;45338;-80
2022/11/03 11:20:20;;;;;;;;;1.00;1.00;;;;;24.59;45.24;100154.84;5050206;28;45387;-79
2022/11/03 11:22:45;;;;;;;;;1.33;1.33;;;;;24.56;45.12;100155.22;5047092;28;45542;-79
2022/11/03 11:25:10;;;;;;;;;2.67;2.67;;;;;24.55;45.21;100158.94;5052090;28;45474;-81
2022/11/03 11:27:38;;;;;;;;;5.00;5.00;;;;;24.52;44.86;100157.47;5055857;28;45855;-81
2022/11/03 11:30:25;;;;;;;;;2.00;2.00;;;;;24.50;45.30;100145.13;5052312;28;45737;-80
2022/11/03 11:33:11;;;;;;;;;2.00;2.00;;;;;24.47;44.81;100149.91;5054682;28;45835;-81
2022/11/03 11:35:37;;;;;;;;;8.00;4.33;;;;;24.44;44.35;100146.75;5037293;28;45938;-80
2022/11/03 11:38:40;;;;;;;;;3.67;3.67;;;;;24.42;44.62;100146.06;5055829;28;45439;-79
2022/11/03 11:41:05;;;;;;;;;2.00;2.00;;;;;24.39;44.78;100128.31;5046447;28;45469;-79
2022/11/03 11:43:31;;;;;;;;;4.67;3.33;;;;;24.38;44.85;100121.19;5048579;28;45443;-79
2022/11/03 11:46:21;;;;;;;;;2.33;2.33;;;;;24.38;44.88;100115.78;5051493;28;45756;-79
2022/11/03 11:48:55;;;;;;;;;3.00;3.00;;;;;24.38;44.82;100112.22;5048425;28;45428;-79
2022/11/03 11:51:21;;;;;;;;;4.00;3.00;;;;;24.39;44.70;100105.78;5039547;28;45693;-79
2022/11/03 11:53:48;;;;;;;;;3.67;3.00;;;;;24.37;44.67;100092.41;5051934;28;45478;-79
2022/11/03 11:56:15;;;;;;;;;3.67;1.67;;;;;24.37;44.31;100086.97;5045892;28;46391;-80
2022/11/03 11:58:55;;;;;;;;;5.00;3.00;;;;;24.36;44.54;100090.69;5051613;28;45500;-80
2022/11/03 12:03:05;;;;;;;;;2.33;2.33;;;;;24.35;44.82;100094.44;5066147;27;45499;-78
2022/11/03 12:05:34;;;;;;;;;2.00;2.00;;;;;24.31;44.92;100104.00;5053132;28;45529;-84
2022/11/03 12:08:00;;;;;;;;;5.33;3.33;;;;;24.30;44.77;100103.16;5056080;27;45475;-79
2022/11/03 12:10:30;;;;;;;;;2.67;2.67;;;;;24.30;45.11;100105.88;5064317;28;45630;-80
2022/11/03 12:12:58;;;;;;;;;2.00;2.00;;;;;24.29;45.29;100112.34;5050093;28;45308;-80
2022/11/03 12:15:55;;;;;;;;;3.00;3.00;;;;;24.28;45.41;100109.81;5062193;28;45339;-80
2022/11/03 12:18:37;;;;;;;;;2.33;2.33;;;;;24.26;45.64;100114.56;5067905;28;45500;-81
2022/11/03 12:21:04;;;;;;;;;6.00;3.00;;;;;24.26;45.58;100117.28;5061660;28;46082;-82
2022/11/03 12:23:38;;;;;;;;;7.67;3.00;;;;;24.27;46.09;100105.44;5062332;28;46143;-78
2022/11/03 12:26:04;;;;;;;;;5.67;4.00;;;;;24.23;45.88;100087.84;5065451;28;45458;-79
2022/11/03 12:28:36;;;;;;;;;1.67;1.33;;;;;24.23;46.08;100090.56;5062280;28;45464;-79
2022/11/03 12:31:02;;;;;;;;;1.67;1.00;;;;;24.23;46.43;100085.97;5058070;28;45490;-82
2022/11/03 12:33:28;;;;;;;;;3.33;3.33;;;;;24.25;46.32;100086.63;5049616;28;46152;-75
2022/11/03 12:35:55;;;;;;;;;3.00;2.67;;;;;24.22;46.27;100076.16;5066795;28;45614;-79
2022/11/03 12:38:21;;;;;;;;;2.00;2.00;;;;;24.23;46.58;100071.56;5070869;28;45403;-78
2022/11/03 12:40:46;;;;;;;;;4.00;2.67;;;;;24.21;46.66;100060.91;5067629;27;45503;-78
2022/11/03 12:43:11;;;;;;;;;3.67;3.33;;;;;24.21;46.72;100061.75;5058174;28;45422;-76
2022/11/03 12:45:37;;;;;;;;;3.00;3.00;;;;;24.23;46.48;100053.41;5047961;28;45686;-77
2022/11/03 12:48:03;;;;;;;;;3.00;3.00;;;;;24.19;46.80;100049.41;5055692;28;57598;-87
2022/11/03 12:50:28;;;;;;;;;4.00;2.67;;;;;24.16;46.75;100037.06;5057466;28;45600;-89
2022/11/03 12:52:54;;;;;;;;;2.00;2.00;;;;;24.23;46.47;100037.16;5057462;28;54023;-86
2022/11/03 12:55:19;;;;;;;;;3.67;1.33;;;;;24.28;45.96;100029.28;5053418;28;45823;-78
2022/11/03 12:57:45;;;;;;;;;3.00;2.00;;;;;24.31;45.87;100031.63;5048810;28;45534;-85
2022/11/03 13:00:11;;;;;;;;;2.67;2.67;;;;;24.28;46.39;100021.16;5051797;28;45852;-80
2022/11/03 13:02:37;;;;;;;;;3.00;3.00;;;;;24.28;46.36;100020.34;5048930;28;46422;-87
2022/11/03 13:05:04;;;;;;;;;5.33;3.67;;;;;24.25;46.43;100012.56;5062869;28;45576;-84
2022/11/03 13:07:29;;;;;;;;;3.67;3.67;;;;;24.26;46.32;100012.38;5050206;27;45549;-88
2022/11/03 13:09:55;;;;;;;;;2.33;2.33;;;;;24.24;46.51;100002.75;5058623;28;45500;-86
2022/11/03 13:12:33;;;;;;;;;4.67;2.67;;;;;24.26;46.64;100003.41;5059876;28;46139;-90
2022/11/03 13:15:01;;;;;;;;;2.00;2.00;;;;;24.26;46.71;99996.09;5044735;28;45421;-84
2022/11/03 13:17:27;;;;;;;;;4.00;3.00;;;;;24.26;46.70;99990.69;5038465;28;45495;-82
2022/11/03 13:19:52;;;;;;;;;2.00;2.00;;;;;24.27;46.90;99994.25;5044679;28;45495;-88
2022/11/03 13:22:18;;;;;;;;;2.00;2.00;;;;;24.26;47.03;99992.53;5041811;28;45355;-88
2022/11/03 13:24:44;;;;;;;;;3.00;3.00;;;;;24.26;47.07;99990.69;5050800;28;45408;-84
2022/11/03 13:27:09;;;;;;;;;2.00;2.00;;;;;24.26;47.08;99974.41;5046196;28;45466;-79
2022/11/03 13:29:35;;;;;;;;;1.67;1.67;;;;;24.26;47.49;99960.84;5037433;28;51569;-87
2022/11/03 13:32:00;;;;;;;;;3.00;3.00;;;;;24.28;46.88;99968.81;5043955;28;45432;-78
2022/11/03 13:34:26;;;;;;;;;2.00;2.00;;;;;24.26;47.24;99963.56;5036154;28;45477;-78
2022/11/03 13:36:51;;;;;;;;;1.00;1.00;;;;;24.28;47.75;99958.78;5067040;27;45436;-80
2022/11/03 13:39:16;;;;;;;;;2.00;2.00;;;;;24.30;47.48;99953.16;5063300;28;45500;-78
2022/11/03 13:41:41;;;;;;;;;2.00;2.00;;;;;24.32;47.47;99953.84;5048381;28;51467;-77
2022/11/03 13:44:07;;;;;;;;;4.00;2.00;;;;;24.32;47.80;99951.94;5054776;28;51101;-77
2022/11/03 13:46:33;;;;;;;;;2.00;0.33;;;;;24.35;47.66;99950.72;5048111;28;45588;-77
2022/11/03 13:48:58;;;;;;;;;3.33;1.67;;;;;24.33;47.70;99959.03;5051058;28;45433;-78
2022/11/03 13:51:24;;;;;;;;;5.00;3.67;;;;;24.36;47.71;99960.53;5037914;28;61764;-79
2022/11/03 13:53:49;;;;;;;;;1.00;1.00;;;;;24.33;48.09;99979.91;5045141;28;45550;-80
2022/11/03 13:56:14;;;;;;;;;3.00;3.00;;;;;24.33;48.09;99991.59;5046243;28;45482;-82
2022/11/03 13:58:39;;;;;;;;;0.67;0.67;;;;;24.33;47.80;99979.91;5046819;28;45836;-80
2022/11/03 14:01:05;;;;;;;;;2.00;2.00;;;;;24.36;48.01;99963.25;5042074;28;56379;-80
2022/11/03 14:03:30;;;;;;;;;3.00;3.00;;;;;24.36;48.08;99965.13;5038161;28;45541;-79
2022/11/03 14:05:55;;;;;;;;;3.00;3.00;;;;;24.35;48.17;99958.84;5039083;28;45508;-78
2022/11/03 14:08:21;;;;;;;;;2.00;2.00;;;;;24.37;48.36;99956.81;5040500;28;45740;-79
2022/11/03 14:10:46;;;;;;;;;2.33;2.00;;;;;24.34;48.39;99941.75;5046672;28;51617;-82
2022/11/03 14:13:11;;;;;;;;;2.33;2.33;;;;;24.36;48.40;99948.84;5042713;28;45407;-80
2022/11/03 14:15:37;;;;;;;;;2.00;2.00;;;;;24.39;48.55;99943.88;5051776;28;45415;-79
2022/11/03 14:18:02;;;;;;;;;2.67;2.67;;;;;24.40;49.05;99942.03;5048547;28;46295;-81
2022/11/03 14:20:27;;;;;;;;;4.67;3.00;;;;;24.42;48.97;99931.81;5048878;28;47244;-80
2022/11/03 14:22:53;;;;;;;;;2.33;2.00;;;;;24.41;49.16;99925.56;5054599;28;54050;-80
2022/11/03 14:25:19;;;;;;;;;2.00;2.00;;;;;24.43;48.90;99920.75;5035444;28;45395;-81
2022/11/03 14:27:45;;;;;;;;;4.00;2.33;;;;;24.42;49.25;99931.81;5038345;28;45564;-80
2022/11/03 14:30:12;;;;;;;;;2.00;2.00;;;;;24.42;48.96;99935.38;5036398;28;45516;-81
2022/11/03 14:32:37;;;;;;;;;2.67;2.67;;;;;24.42;47.32;99929.94;5036065;28;45472;-84
2022/11/03 14:35:03;;;;;;;;;3.33;3.33;;;;;24.44;46.77;99924.31;5035160;28;45657;-86
2022/11/03 14:37:28;;;;;;;;;4.00;4.00;;;;;24.46;46.58;99914.09;5036022;28;45447;-80
2022/11/03 14:39:53;;;;;;;;;4.00;2.00;;;;;24.44;46.43;99925.16;5041099;28;62153;-89
2022/11/03 14:42:18;;;;;;;;;3.00;3.00;;;;;24.48;46.29;99929.16;5042111;28;45597;-85
2022/11/03 14:44:45;;;;;;;;;2.67;1.67;;;;;24.48;46.42;99934.56;5036329;28;45467;-84
2022/11/03 14:47:14;;;;;;;;;4.67;4.67;;;;;24.44;46.07;99927.03;5033866;28;45476;-85
2022/11/03 14:49:39;;;;;;;;;3.00;3.00;;;;;24.45;45.98;99934.13;5041486;28;46003;-89
2022/11/03 14:52:06;;;;;;;;;6.33;4.00;;;;;24.40;45.87;99939.31;5045218;28;45368;-88
2022/11/03 14:54:32;;;;;;;;;3.33;2.33;;;;;24.33;46.03;99939.25;5035098;28;45390;-83
2022/11/03 14:56:58;;;;;;;;;3.00;3.00;;;;;24.29;46.25;99935.22;5035154;28;45519;-81
2022/11/03 14:59:24;;;;;;;;;3.00;3.00;;;;;24.28;46.26;99942.50;5038168;28;46200;-82
2022/11/03 15:01:51;;;;;;;;;2.00;2.00;;;;;24.26;46.06;99943.75;5038554;28;45765;-84
2022/11/03 15:04:16;;;;;;;;;6.00;3.00;;;;;24.23;46.40;99944.16;5034633;28;45407;-84
2022/11/03 15:06:43;;;;;;;;;2.67;2.67;;;;;24.20;46.39;99958.94;5042038;28;45512;-85
2022/11/03 15:09:09;;;;;;;;;3.00;3.00;;;;;24.15;46.64;99958.66;5042324;28;47193;-85
2022/11/03 15:11:35;;;;;;;;;2.00;2.00;;;;;24.15;46.45;99966.81;5041221;28;45432;-84
2022/11/03 15:14:01;;;;;;;;;3.00;3.00;;;;;24.12;46.62;99961.75;5051985;28;45296;-89
2022/11/03 15:16:26;;;;;;;;;4.00;4.00;;;;;24.07;47.40;99963.13;5046602;28;45687;-86
2022/11/03 15:18:52;;;;;;;;;4.00;4.00;;;;;24.07;47.24;99943.31;5046431;28;45723;-85
2022/11/03 15:21:17;;;;;;;;;3.00;3.00;;;;;24.12;47.36;99951.75;5044014;28;45634;-86
2022/11/03 15:23:43;;;;;;;;;4.00;4.00;;;;;24.13;47.52;99958.84;5035572;28;45931;-83
2022/11/03 15:26:09;;;;;;;;;3.00;3.00;;;;;24.15;47.72;99958.66;5050028;28;45527;-82
2022/11/03 15:28:34;;;;;;;;;2.67;2.67;;;;;24.16;47.55;99966.59;5038887;28;46139;-82
2022/11/03 15:31:00;;;;;;;;;4.00;4.00;;;;;24.15;47.95;99958.66;5045294;28;45521;-81
2022/11/03 15:33:26;;;;;;;;;2.67;2.67;;;;;24.18;46.67;99956.41;5034337;28;45812;-82
2022/11/03 15:35:51;;;;;;;;;5.00;3.00;;;;;24.24;46.17;99941.25;5038324;28;45433;-81
2022/11/03 15:38:16;;;;;;;;;2.33;2.33;;;;;24.23;46.83;99944.16;5050348;28;46435;-86
2022/11/03 15:40:42;;;;;;;;;5.00;3.67;;;;;24.23;46.80;99939.53;5053447;28;45894;-86
2022/11/03 15:43:07;;;;;;;;;3.67;3.00;;;;;24.24;47.17;99957.50;5044075;28;45369;-87
2022/11/03 15:45:33;;;;;;;;;2.00;2.00;;;;;24.25;46.92;99970.03;5046258;28;45419;-87
2022/11/03 15:47:59;;;;;;;;;1.00;1.00;;;;;24.23;47.06;99963.13;5042269;28;45442;-88
2022/11/03 15:50:25;;;;;;;;;3.00;2.00;;;;;24.21;47.44;99976.88;5041637;28;45280;-84
2022/11/03 15:52:51;;;;;;;;;3.00;3.00;;;;;24.22;47.22;99981.25;5048241;28;45522;-84
2022/11/03 15:55:16;;;;;;;;;2.67;2.00;;;;;24.26;47.59;99987.13;5045578;28;45523;-83
2022/11/03 15:57:41;;;;;;;;;3.33;3.33;;;;;24.26;47.00;99995.25;5042203;28;45472;-85
2022/11/03 16:00:09;;;;;;;;;1.67;1.67;;;;;24.25;47.45;99996.28;5034290;28;55634;-86
2022/11/03 16:02:34;;;;;;;;;2.00;2.00;;;;;24.29;47.42;99989.47;5039202;28;46529;-85
2022/11/03 16:05:01;;;;;;;;;2.00;2.00;;;;;24.31;47.63;99984.69;5046550;28;45462;-86
2022/11/03 16:07:26;;;;;;;;;3.00;2.00;;;;;24.32;47.87;99999.94;5033774;28;45440;-78
2022/11/03 16:09:52;;;;;;;;;1.00;1.00;;;;;24.32;47.78;99998.03;5029606;28;45508;-87
2022/11/03 16:12:17;;;;;;;;;5.00;3.00;;;;;24.35;47.59;100004.97;5046744;28;45875;-88
2022/11/03 16:14:42;;;;;;;;;3.00;2.00;;;;;24.38;47.53;100001.03;5048708;28;57530;-87
2022/11/03 16:17:08;;;;;;;;;2.00;2.00;;;;;24.40;47.78;100005.22;5046247;28;52924;-89
2022/11/03 16:19:33;;;;;;;;;1.33;1.33;;;;;24.43;47.72;100001.28;5053477;28;45426;-88
2022/11/03 16:21:58;;;;;;;;;2.00;2.00;;;;;24.40;47.90;99997.09;5051753;28;45514;-89
2022/11/03 16:24:24;;;;;;;;;1.33;1.33;;;;;24.46;48.01;100009.91;5034634;28;45395;-90
2022/11/03 16:26:52;;;;;;;;;4.00;2.00;;;;;24.46;48.03;100007.19;5048731;28;45629;-86
2022/11/03 16:29:17;;;;;;;;;3.67;1.00;;;;;24.48;47.62;100009.69;5054636;28;45553;-88